Time;durP1;ratioP1;P1;durP2;ratioP2;P2;SDS_P1;SDS_P2;PMS_P1;PMS_P2;Temp;Humidity;BMP_temperature;BMP_pressure;BME280_temperature;BME280_humidity;BME280_pressure;Samples;Min_cycle;Max_cycle;Signal;HPM_P1;HPM_P2
2021/03/27 00:00:23;;;;;;;13.02;7.72;;;5.30;87.00;;;;;;5103212;28;20487;-79
2021/03/27 00:03:16;;;;;;;13.48;7.60;;;5.20;87.50;;;;;;5068178;28;20066;-79
2021/03/27 00:05:51;;;;;;;18.17;8.90;;;5.00;88.70;;;;;;5067906;28;20036;-83
2021/03/27 00:08:49;;;;;;;13.63;8.52;;;5.10;88.10;;;;;;5091575;28;20051;-83
2021/03/27 00:11:39;;;;;;;8.45;6.97;;;5.20;86.70;;;;;;5101441;28;20051;-84
2021/03/27 00:14:16;;;;;;;10.23;8.52;;;5.30;86.30;;;;;;5079802;28;20036;-83
2021/03/27 00:17:04;;;;;;;9.98;6.85;;;5.00;85.90;;;;;;5091097;28;20059;-83
2021/03/27 00:19:59;;;;;;;23.40;10.63;;;4.50;88.60;;;;;;5093837;28;20047;-83
2021/03/27 00:22:37;;;;;;;14.13;7.35;;;4.20;90.40;;;;;;5089293;28;20051;-83
2021/03/27 00:25:09;;;;;;;9.55;7.43;;;4.30;90.60;;;;;;5096359;28;20040;-83
2021/03/27 00:27:51;;;;;;;8.65;7.10;;;4.40;90.50;;;;;;5098434;28;20490;-84
2021/03/27 00:30:25;;;;;;;13.98;6.40;;;4.50;90.20;;;;;;5111168;28;20054;-83
2021/03/27 00:32:56;;;;;;;9.55;8.55;;;4.50;90.00;;;;;;5104867;28;20496;-83
2021/03/27 00:35:31;;;;;;;;;;;4.50;90.00;;;;;;5090764;28;20506;-83
2021/03/27 00:38:07;;;;;;;9.25;6.05;;;4.30;89.20;;;;;;5113494;28;19920;-83
2021/03/27 00:40:41;;;;;;;7.00;5.82;;;4.10;89.30;;;;;;5104257;28;20047;-79
2021/03/27 00:43:22;;;;;;;10.35;7.57;;;3.80;90.30;;;;;;5101060;28;20047;-83
2021/03/27 00:45:56;;;;;;;12.52;8.20;;;3.90;91.60;;;;;;5092972;28;20044;-84
2021/03/27 00:48:36;;;;;;;;;;;4.10;90.90;;;;;;5075429;28;20058;-84
2021/03/27 00:51:12;;;;;;;9.85;6.50;;;4.10;90.70;;;;;;5104593;28;19923;-83
2021/03/27 00:54:26;;;;;;;14.02;7.55;;;3.90;91.10;;;;;;5094730;28;20545;-83
2021/03/27 00:57:10;;;;;;;9.45;7.72;;;3.90;91.90;;;;;;5108611;28;20518;-83
2021/03/27 00:59:58;;;;;;;11.52;6.85;;;4.20;91.50;;;;;;5046332;28;20048;-78
2021/03/27 01:02:51;;;;;;;11.10;8.93;;;4.40;91.10;;;;;;5097103;27;20043;-83
2021/03/27 01:05:40;;;;;;;10.57;7.82;;;4.60;90.40;;;;;;5112744;28;20043;-84
2021/03/27 01:08:27;;;;;;;11.02;8.82;;;4.80;89.70;;;;;;5112718;28;20403;-79
2021/03/27 01:11:31;;;;;;;13.57;8.23;;;4.90;88.60;;;;;;5092274;28;20062;-84
2021/03/27 01:14:06;;;;;;;8.15;7.28;;;4.80;90.70;;;;;;5094642;28;20511;-84
2021/03/27 01:16:41;;;;;;;12.30;7.85;;;4.40;91.70;;;;;;5095089;28;20044;-84
2021/03/27 01:19:19;;;;;;;3.47;3.13;;;4.50;92.00;;;;;;5108774;28;20055;-79
2021/03/27 01:21:48;;;;;;;12.10;8.25;;;4.50;90.30;;;;;;5108767;28;20395;-79
2021/03/27 01:24:22;;;;;;;6.07;5.30;;;4.80;90.40;;;;;;5088295;28;20043;-79
2021/03/27 01:27:08;;;;;;;7.60;6.80;;;4.60;90.20;;;;;;5108262;28;20459;-79
2021/03/27 01:29:41;;;;;;;10.00;5.03;;;4.90;87.80;;;;;;5096582;28;20036;-83
2021/03/27 01:32:27;;;;;;;7.15;6.15;;;5.30;85.60;;;;;;5096471;28;20060;-84
2021/03/27 01:35:04;;;;;;;4.50;3.97;;;5.50;85.30;;;;;;5096708;28;20052;-84
2021/03/27 01:37:43;;;;;;;7.15;5.13;;;5.70;82.20;;;;;;5096490;28;20040;-84
2021/03/27 01:40:26;;;;;;;6.45;4.53;;;5.90;81.70;;;;;;5105237;28;20048;-79
2021/03/27 01:43:19;;;;;;;4.78;3.40;;;5.90;83.50;;;;;;5125131;27;20392;-79
2021/03/27 01:46:11;;;;;;;5.65;4.53;;;6.00;79.40;;;;;;5099602;28;20043;-83
2021/03/27 01:48:53;;;;;;;7.07;4.75;;;6.30;77.80;;;;;;5110164;28;20039;-79
2021/03/27 01:51:32;;;;;;;8.30;5.30;;;6.30;82.40;;;;;;5107006;28;20048;-79
2021/03/27 01:54:13;;;;;;;7.22;4.47;;;6.10;84.80;;;;;;5115837;27;20412;-79
2021/03/27 01:56:46;;;;;;;8.55;5.28;;;5.90;84.20;;;;;;5111103;28;20047;-84
2021/03/27 01:59:36;;;;;;;6.65;5.38;;;5.90;82.70;;;;;;5098749;28;20403;-84
2021/03/27 02:02:12;;;;;;;14.40;5.63;;;5.90;86.90;;;;;;5093681;28;20035;-77
2021/03/27 02:04:44;;;;;;;6.03;5.35;;;5.80;87.80;;;;;;5103296;28;20502;-77
2021/03/27 02:07:22;;;;;;;6.22;4.70;;;5.70;87.60;;;;;;5113443;28;20055;-77
2021/03/27 02:10:22;;;;;;;6.78;5.30;;;5.70;88.30;;;;;;5093604;28;20043;-77
2021/03/27 02:13:06;;;;;;;6.72;5.43;;;5.70;89.10;;;;;;5105966;28;20368;-77
2021/03/27 02:15:48;;;;;;;7.63;5.47;;;5.70;88.90;;;;;;5103378;28;20056;-77
2021/03/27 02:18:22;;;;;;;10.15;5.88;;;5.70;88.40;;;;;;5099322;28;20051;-77
2021/03/27 02:21:15;;;;;;;9.13;4.78;;;5.80;87.80;;;;;;5111292;28;20492;-77
2021/03/27 02:24:08;;;;;;;5.20;4.70;;;5.80;87.40;;;;;;5113391;28;20052;-77
2021/03/27 02:27:09;;;;;;;8.32;5.07;;;5.90;86.10;;;;;;5091733;28;20044;-77
2021/03/27 02:29:57;;;;;;;5.30;4.78;;;5.90;86.80;;;;;;5105284;28;20059;-80
2021/03/27 02:32:43;;;;;;;6.45;5.53;;;5.90;85.30;;;;;;5105117;28;20046;-80
2021/03/27 02:35:34;;;;;;;9.93;4.03;;;5.90;86.30;;;;;;5110164;28;20051;-84
2021/03/27 02:38:17;;;;;;;5.03;4.50;;;5.80;89.10;;;;;;5093368;28;20055;-84
2021/03/27 02:41:06;;;;;;;6.57;4.60;;;5.70;90.00;;;;;;5091730;28;20039;-84
2021/03/27 02:43:47;;;;;;;7.40;4.57;;;5.60;90.90;;;;;;5116108;28;20047;-84
2021/03/27 02:46:26;;;;;;;;;;;5.50;90.50;;;;;;5115707;28;20035;-84
2021/03/27 02:49:18;;;;;;;4.45;3.95;;;5.50;91.40;;;;;;5114414;28;19920;-84
2021/03/27 02:51:52;;;;;;;4.95;4.50;;;5.40;91.90;;;;;;5114555;28;20066;-84
2021/03/27 02:54:42;;;;;;;8.18;5.93;;;5.30;91.20;;;;;;5091337;28;20395;-84
2021/03/27 02:57:14;;;;;;;5.80;5.20;;;5.40;90.80;;;;;;5076825;28;20048;-84
2021/03/27 03:00:01;;;;;;;7.40;6.72;;;5.40;91.00;;;;;;5077472;28;20056;-84
2021/03/27 03:02:38;;;;;;;4.80;4.40;;;5.50;90.90;;;;;;5066602;28;20040;-84
2021/03/27 03:05:23;;;;;;;9.88;5.97;;;5.50;90.80;;;;;;5096638;28;20047;-84
2021/03/27 03:08:23;;;;;;;5.93;5.32;;;5.50;91.30;;;;;;5093744;28;20052;-84
2021/03/27 03:10:58;;;;;;;6.78;4.82;;;5.50;91.50;;;;;;5095068;28;20052;-84
2021/03/27 03:13:29;;;;;;;8.05;6.18;;;5.40;91.50;;;;;;5083768;28;20051;-79
2021/03/27 03:16:25;;;;;;;4.45;4.05;;;5.40;91.70;;;;;;5111364;28;20047;-79
2021/03/27 03:19:17;;;;;;;3.28;3.00;;;5.50;87.70;;;;;;5095063;28;20475;-78
2021/03/27 03:22:05;;;;;;;7.63;4.22;;;6.10;78.60;;;;;;5111124;28;20043;-84
2021/03/27 03:24:46;;;;;;;5.68;5.03;;;6.40;78.20;;;;;;5094317;28;20044;-84
2021/03/27 03:27:32;;;;;;;6.43;5.75;;;6.40;82.80;;;;;;5094880;28;20056;-80
2021/03/27 03:30:25;;;;;;;6.22;5.20;;;6.10;85.50;;;;;;5106468;28;20035;-80
2021/03/27 03:33:23;;;;;;;10.60;4.03;;;5.80;86.20;;;;;;5093770;28;20048;-80
2021/03/27 03:35:59;;;;;;;5.25;4.63;;;5.70;85.40;;;;;;5103433;28;20074;-80
2021/03/27 03:38:53;;;;;;;6.93;4.75;;;5.70;85.10;;;;;;5114586;28;20109;-80
2021/03/27 03:41:38;;;;;;;10.23;5.40;;;5.00;89.40;;;;;;5094552;28;20035;-80
2021/03/27 03:44:09;;;;;;;7.47;5.15;;;4.80;90.70;;;;;;5099011;28;20044;-80
2021/03/27 03:46:57;;;;;;;5.57;4.18;;;4.90;88.30;;;;;;5110447;28;20055;-84
2021/03/27 03:49:43;;;;;;;5.15;4.65;;;5.10;84.80;;;;;;5102149;28;20114;-83
2021/03/27 03:52:17;;;;;;;5.53;4.63;;;5.90;78.60;;;;;;5113636;28;20039;-80
2021/03/27 03:54:53;;;;;;;6.13;5.18;;;6.40;76.40;;;;;;5113135;28;20403;-80
2021/03/27 03:57:47;;;;;;;4.88;4.50;;;6.60;75.10;;;;;;5113548;28;20054;-84
2021/03/27 04:00:25;;;;;;;7.20;4.68;;;6.70;74.30;;;;;;5058915;28;20048;-84
2021/03/27 04:03:12;;;;;;;7.28;4.13;;;6.70;74.50;;;;;;5085246;28;20063;-84
2021/03/27 04:06:15;;;;;;;10.05;7.03;;;6.80;74.20;;;;;;5095946;28;20046;-83
2021/03/27 04:09:26;;;;;;;6.95;5.28;;;6.90;73.70;;;;;;5093324;28;20043;-84
2021/03/27 04:12:02;;;;;;;8.02;4.38;;;7.10;73.50;;;;;;5075393;28;20063;-84
2021/03/27 04:15:12;;;;;;;6.05;5.35;;;7.00;74.40;;;;;;5072792;28;20055;-84
2021/03/27 04:17:42;;;;;;;5.03;4.50;;;7.00;74.10;;;;;;5061015;28;20036;-84
2021/03/27 04:20:51;;;;;;;6.57;5.60;;;7.10;73.90;;;;;;5093350;28;20040;-83
2021/03/27 04:23:37;;;;;;;6.82;5.07;;;7.10;73.80;;;;;;5091853;28;20052;-82
2021/03/27 04:26:23;;;;;;;6.55;5.35;;;7.10;73.40;;;;;;5093417;28;20059;-83
2021/03/27 04:28:59;;;;;;;6.38;4.65;;;7.00;74.10;;;;;;5107583;28;20051;-83
2021/03/27 04:31:59;;;;;;;7.35;4.93;;;7.00;74.50;;;;;;5095626;28;20054;-83
2021/03/27 04:34:56;;;;;;;8.57;6.25;;;7.10;74.20;;;;;;5073955;28;20048;-83
2021/03/27 04:38:01;;;;;;;6.45;5.05;;;7.10;74.50;;;;;;5093299;28;20043;-83
2021/03/27 04:40:41;;;;;;;9.02;4.88;;;7.10;74.90;;;;;;5104207;28;20055;-82
2021/03/27 04:43:37;;;;;;;8.95;6.28;;;7.00;75.10;;;;;;5113944;28;20051;-83
2021/03/27 04:46:29;;;;;;;7.15;6.10;;;7.00;76.10;;;;;;5100381;28;20039;-83
2021/03/27 04:49:26;;;;;;;9.35;5.15;;;7.20;76.00;;;;;;5113144;28;20392;-79
2021/03/27 04:52:14;;;;;;;7.95;5.40;;;7.20;76.00;;;;;;5106056;28;20047;-79
2021/03/27 04:55:12;;;;;;;10.75;6.18;;;7.30;75.90;;;;;;5105849;28;20059;-79
2021/03/27 04:58:13;;;;;;;8.60;6.25;;;7.30;75.80;;;;;;5099273;28;20052;-80
2021/03/27 05:01:18;;;;;;;9.30;5.00;;;7.40;77.00;;;;;;5088804;28;20047;-79
2021/03/27 05:03:51;;;;;;;5.88;5.28;;;7.30;76.80;;;;;;5106833;28;20062;-83
2021/03/27 05:06:40;;;;;;;9.50;5.72;;;7.40;77.00;;;;;;5094448;28;20059;-83
2021/03/27 05:09:31;;;;;;;7.43;5.45;;;7.50;77.10;;;;;;5125265;27;20048;-82
2021/03/27 05:12:04;;;;;;;9.70;6.90;;;7.60;76.80;;;;;;5108597;28;20067;-83
2021/03/27 05:14:54;;;;;;;9.05;6.13;;;7.60;76.70;;;;;;5110344;28;20055;-79
2021/03/27 05:17:49;;;;;;;6.63;5.30;;;7.60;77.50;;;;;;5094667;28;20368;-79
2021/03/27 05:20:33;;;;;;;7.20;5.75;;;7.70;77.20;;;;;;5109450;28;20379;-83
2021/03/27 05:23:17;;;;;;;8.13;6.82;;;7.70;77.30;;;;;;5103598;28;20059;-79
2021/03/27 05:25:44;;;;;;;9.93;8.05;;;7.70;77.20;;;;;;5090440;28;20399;-79
2021/03/27 05:28:21;;;;;;;7.07;5.80;;;7.70;77.60;;;;;;5084025;28;20391;-83
2021/03/27 05:31:04;;;;;;;7.70;5.70;;;7.80;78.30;;;;;;5113016;28;20051;-83
2021/03/27 05:33:44;;;;;;;15.85;6.50;;;7.90;78.10;;;;;;5077807;28;20392;-83
2021/03/27 05:36:20;;;;;;;8.38;6.47;;;8.00;77.60;;;;;;5074490;28;20032;-83
2021/03/27 05:39:14;;;;;;;7.22;5.65;;;8.00;77.10;;;;;;5074978;28;20048;-83
2021/03/27 05:42:01;;;;;;;6.43;5.22;;;8.10;78.30;;;;;;5092036;28;20048;-83
2021/03/27 05:44:31;;;;;;;7.10;5.82;;;8.10;78.80;;;;;;5091197;28;20480;-83
2021/03/27 05:47:33;;;;;;;6.60;5.25;;;8.00;79.50;;;;;;5082013;28;20043;-84
2021/03/27 05:50:24;;;;;;;12.48;6.65;;;8.00;78.30;;;;;;5112631;28;20552;-83
2021/03/27 05:53:26;;;;;;;9.85;5.78;;;8.20;78.40;;;;;;5083628;28;20710;-80
2021/03/27 05:56:24;;;;;;;8.13;7.28;;;8.20;77.90;;;;;;5100199;28;20056;-80
2021/03/27 05:59:03;;;;;;;8.35;5.60;;;8.20;78.70;;;;;;5107774;28;20047;-83
2021/03/27 06:01:43;;;;;;;7.90;6.95;;;8.20;80.20;;;;;;5092058;28;20052;-83
2021/03/27 06:04:30;;;;;;;8.38;5.72;;;8.20;79.30;;;;;;5087905;28;20043;-82
2021/03/27 06:07:00;;;;;;;8.20;6.30;;;8.20;80.10;;;;;;5101750;28;20048;-83
2021/03/27 06:09:43;;;;;;;8.98;6.05;;;8.20;80.40;;;;;;5096565;28;20408;-83
2021/03/27 06:12:23;;;;;;;9.02;6.45;;;8.30;79.70;;;;;;5099077;28;20039;-82
2021/03/27 06:15:15;;;;;;;8.25;6.45;;;8.40;80.20;;;;;;5083537;28;20472;-85
2021/03/27 06:18:24;;;;;;;10.02;6.82;;;8.50;79.90;;;;;;5095076;28;20044;-83
2021/03/27 06:21:19;;;;;;;12.20;8.18;;;8.50;81.20;;;;;;5094788;28;20408;-84
2021/03/27 06:23:56;;;;;;;8.43;7.38;;;8.50;82.40;;;;;;5091591;28;20052;-83
2021/03/27 06:27:01;;;;;;;14.85;8.30;;;8.60;81.70;;;;;;5079870;28;20416;-83
2021/03/27 06:29:56;;;;;;;10.20;7.82;;;8.60;81.30;;;;;;5112725;28;20051;-80
2021/03/27 06:32:49;;;;;;;8.95;7.05;;;8.60;82.20;;;;;;5096486;28;20051;-79
2021/03/27 06:35:49;;;;;;;11.18;8.38;;;8.70;81.40;;;;;;5087524;28;20052;-79
2021/03/27 06:38:51;;;;;;;7.40;6.28;;;8.80;82.10;;;;;;5023237;28;20085;-83
2021/03/27 06:41:19;;;;;;;9.35;6.97;;;8.80;80.50;;;;;;5094521;28;20395;-79
2021/03/27 06:43:58;;;;;;;10.43;7.57;;;8.90;82.60;;;;;;5115420;28;20407;-80
2021/03/27 06:46:51;;;;;;;8.85;7.95;;;9.10;82.00;;;;;;5096705;28;20047;-84
2021/03/27 06:49:47;;;;;;;9.32;7.03;;;9.20;81.10;;;;;;5095302;28;20051;-84
2021/03/27 06:53:19;;;;;;;8.10;6.45;;;9.20;81.00;;;;;;5077183;28;20044;-80
2021/03/27 06:56:07;;;;;;;7.90;6.45;;;9.20;80.50;;;;;;5085774;27;20047;-82
2021/03/27 06:59:01;;;;;;;9.02;7.82;;;9.20;79.50;;;;;;5078562;28;20399;-80
2021/03/27 07:01:38;;;;;;;10.50;7.05;;;9.20;79.90;;;;;;5076462;28;20055;-80
2021/03/27 07:04:25;;;;;;;9.05;7.63;;;9.20;80.60;;;;;;5113328;28;20048;-84
2021/03/27 07:07:07;;;;;;;6.05;5.15;;;9.20;79.10;;;;;;5111415;28;20055;-83
2021/03/27 07:09:43;;;;;;;7.05;5.65;;;9.10;81.20;;;;;;5092707;28;20052;-84
2021/03/27 07:12:41;;;;;;;7.15;5.35;;;9.10;79.90;;;;;;5110714;28;20054;-84
2021/03/27 07:15:22;;;;;;;9.52;4.00;;;9.10;80.00;;;;;;5093403;28;20043;-77
2021/03/27 07:18:24;;;;;;;4.95;4.15;;;9.10;78.80;;;;;;5094443;28;20063;-84
2021/03/27 07:21:05;;;;;;;5.05;4.72;;;9.10;79.70;;;;;;5070484;28;20551;-81
2021/03/27 07:24:19;;;;;;;9.27;4.93;;;9.20;77.40;;;;;;5079844;28;20047;-83
2021/03/27 07:27:20;;;;;;;4.47;4.03;;;9.20;78.50;;;;;;5078619;28;20055;-83
2021/03/27 07:30:22;;;;;;;6.55;4.20;;;9.20;77.20;;;;;;5095142;28;20039;-84
2021/03/27 07:32:55;;;;;;;9.00;3.42;;;9.30;78.20;;;;;;5078948;28;20048;-80
2021/03/27 07:35:45;;;;;;;6.60;3.90;;;9.30;76.80;;;;;;5114529;28;20052;-83
2021/03/27 07:38:38;;;;;;;8.30;4.57;;;9.30;75.40;;;;;;5075813;28;20036;-80
2021/03/27 07:41:43;;;;;;;3.08;2.80;;;9.30;77.60;;;;;;5095787;28;20452;-81
2021/03/27 07:44:19;;;;;;;3.40;3.00;;;9.30;77.20;;;;;;5093931;28;20047;-84
2021/03/27 07:47:12;;;;;;;3.72;3.42;;;9.30;75.40;;;;;;5094708;28;20052;-82
2021/03/27 07:49:55;;;;;;;9.23;3.90;;;9.30;76.80;;;;;;5093110;28;20051;-84
2021/03/27 07:52:30;;;;;;;8.95;3.33;;;9.30;76.30;;;;;;5102991;28;20039;-85
2021/03/27 07:55:32;;;;;;;5.47;3.72;;;9.30;76.90;;;;;;5096070;28;20396;-82
2021/03/27 07:58:12;;;;;;;;;;;9.20;77.30;;;;;;5094147;28;20052;-83
2021/03/27 08:00:49;;;;;;;6.18;3.58;;;9.10;77.10;;;;;;5061445;28;20711;-83
2021/03/27 08:03:28;;;;;;;4.22;3.55;;;9.00;77.80;;;;;;5076240;28;20047;-82
2021/03/27 08:06:28;;;;;;;2.45;2.22;;;9.00;78.20;;;;;;5090877;28;20033;-81
2021/03/27 08:09:26;;;;;;;1.70;1.60;;;8.10;81.50;;;;;;5086245;28;20031;-82
2021/03/27 08:12:13;;;;;;;1.00;1.00;;;6.70;89.60;;;;;;5092588;28;20048;-82
2021/03/27 08:15:19;;;;;;;1.27;1.13;;;6.10;91.80;;;;;;5094301;28;20051;-82
2021/03/27 08:18:16;;;;;;;1.75;1.65;;;6.00;92.10;;;;;;5070564;27;20042;-85
2021/03/27 08:21:17;;;;;;;1.30;1.20;;;5.90;92.60;;;;;;5098414;28;20047;-85
2021/03/27 08:24:26;;;;;;;2.55;1.75;;;5.80;92.50;;;;;;5092638;28;20052;-86
2021/03/27 08:27:24;;;;;;;1.33;1.23;;;5.70;92.60;;;;;;5069972;28;20042;-85
2021/03/27 08:30:29;;;;;;;2.55;1.80;;;5.70;92.90;;;;;;5092134;28;20117;-83
2021/03/27 08:33:31;;;;;;;3.40;1.08;;;5.70;91.80;;;;;;5078201;28;20732;-84
2021/03/27 08:36:17;;;;;;;1.38;1.02;;;5.60;92.10;;;;;;5088932;28;20067;-84
2021/03/27 08:39:10;;;;;;;1.13;1.10;;;5.50;92.80;;;;;;5083261;28;20047;-83
2021/03/27 08:42:04;;;;;;;2.08;1.20;;;5.40;93.10;;;;;;5086563;27;20069;-85
2021/03/27 08:44:58;;;;;;;1.40;1.30;;;5.20;93.00;;;;;;5079209;28;20043;-84
2021/03/27 08:47:38;;;;;;;;;;;5.20;92.40;;;;;;5111958;28;20059;-85
2021/03/27 08:50:28;;;;;;;1.42;1.33;;;5.10;93.10;;;;;;5109659;28;19919;-83
2021/03/27 08:53:07;;;;;;;2.20;1.50;;;5.00;93.30;;;;;;5091610;28;20039;-81
2021/03/27 08:55:40;;;;;;;1.13;1.13;;;4.80;93.10;;;;;;5092901;28;20048;-82
2021/03/27 08:58:27;;;;;;;1.45;1.00;;;4.90;93.30;;;;;;5112236;27;20047;-81
2021/03/27 09:01:19;;;;;;;1.50;1.40;;;5.00;93.00;;;;;;5086217;28;20484;-82
2021/03/27 09:04:05;;;;;;;1.35;1.27;;;5.00;93.60;;;;;;5119586;27;20055;-78
2021/03/27 09:06:50;;;;;;;1.63;1.52;;;5.20;93.10;;;;;;5079067;28;20046;-78
2021/03/27 09:09:26;;;;;;;2.13;1.92;;;5.30;92.50;;;;;;5103488;28;20042;-80
2021/03/27 09:12:19;;;;;;;1.33;1.10;;;5.40;94.00;;;;;;5089210;28;20043;-79
2021/03/27 09:15:06;;;;;;;1.30;1.20;;;5.70;92.00;;;;;;5102937;28;20060;-77
2021/03/27 09:17:41;;;;;;;1.50;1.40;;;5.90;91.90;;;;;;5118467;27;20498;-78
2021/03/27 09:21:05;;;;;;;1.20;1.10;;;6.10;91.60;;;;;;5088035;28;20052;-80
2021/03/27 09:23:45;;;;;;;3.30;2.03;;;6.40;90.20;;;;;;5094844;28;20043;-81
2021/03/27 09:26:52;;;;;;;1.42;1.33;;;6.60;85.20;;;;;;5094123;28;20043;-83
2021/03/27 09:29:31;;;;;;;1.17;1.17;;;6.90;85.20;;;;;;5056944;28;20418;-83
2021/03/27 09:32:09;;;;;;;1.92;1.75;;;6.70;86.50;;;;;;5091317;28;20399;-79
2021/03/27 09:35:00;;;;;;;2.00;1.90;;;6.60;86.50;;;;;;5103503;28;20055;-79
2021/03/27 09:38:19;;;;;;;1.58;1.45;;;6.60;84.60;;;;;;5121336;28;20044;-81
2021/03/27 09:41:24;;;;;;;2.70;2.60;;;6.50;83.10;;;;;;5046997;28;20045;-80
2021/03/27 09:44:13;;;;;;;3.70;1.20;;;6.70;82.90;;;;;;5043730;28;20052;-84
2021/03/27 09:46:40;;;;;;;3.65;2.03;;;6.80;80.10;;;;;;5105608;28;20062;-81
2021/03/27 09:49:17;;;;;;;1.65;1.55;;;7.00;81.20;;;;;;5080719;28;20040;-80
2021/03/27 09:52:23;;;;;;;2.35;1.30;;;7.10;81.10;;;;;;5115182;28;20055;-83
2021/03/27 09:55:30;;;;;;;1.15;0.90;;;7.20;79.40;;;;;;5099364;28;20039;-86
2021/03/27 09:58:18;;;;;;;1.67;1.58;;;7.40;79.70;;;;;;5115974;28;20411;-82
2021/03/27 10:01:12;;;;;;;1.30;1.30;;;7.60;79.90;;;;;;5093059;28;20050;-78
2021/03/27 10:03:50;;;;;;;7.85;1.42;;;7.70;80.60;;;;;;5101319;28;20048;-77
2021/03/27 10:06:42;;;;;;;1.77;1.67;;;8.60;78.20;;;;;;5109609;28;20483;-80
2021/03/27 10:09:32;;;;;;;4.07;2.00;;;8.40;80.80;;;;;;5107323;28;20047;-79
2021/03/27 10:12:41;;;;;;;4.22;2.25;;;8.10;77.90;;;;;;5102031;27;20051;-78
2021/03/27 10:15:29;;;;;;;1.95;1.70;;;7.70;78.20;;;;;;5085801;28;20044;-78
2021/03/27 10:18:22;;;;;;;3.60;1.85;;;7.90;81.30;;;;;;5097593;28;20042;-78
2021/03/27 10:20:53;;;;;;;2.28;1.75;;;8.30;78.90;;;;;;5111857;28;20759;-81
2021/03/27 10:23:30;;;;;;;1.88;1.73;;;8.20;80.40;;;;;;5098459;28;20141;-81
2021/03/27 10:26:19;;;;;;;1.10;1.10;;;8.20;77.20;;;;;;5097087;28;20411;-80
2021/03/27 10:28:51;;;;;;;2.65;1.45;;;8.30;76.90;;;;;;5107356;28;20036;-81
2021/03/27 10:31:45;;;;;;;2.95;1.85;;;8.40;77.60;;;;;;5108501;28;20052;-81
2021/03/27 10:34:38;;;;;;;1.63;1.30;;;8.40;76.80;;;;;;5089768;28;20051;-82
2021/03/27 10:37:15;;;;;;;1.73;1.60;;;8.60;73.50;;;;;;5095698;28;20040;-85
2021/03/27 10:40:10;;;;;;;2.10;1.40;;;8.70;71.40;;;;;;5060653;28;20044;-86
2021/03/27 10:43:13;;;;;;;1.63;1.10;;;8.70;75.50;;;;;;5095331;28;20051;-85
2021/03/27 10:46:24;;;;;;;1.17;1.00;;;8.90;70.90;;;;;;5105374;28;20531;-87
2021/03/27 10:49:11;;;;;;;6.22;1.67;;;8.70;74.10;;;;;;5043739;28;20053;-81
2021/03/27 10:51:53;;;;;;;1.48;1.10;;;8.70;70.50;;;;;;5090153;28;20058;-81
2021/03/27 10:54:46;;;;;;;2.13;1.08;;;8.50;67.90;;;;;;5107975;28;20051;-82
2021/03/27 10:57:43;;;;;;;1.35;1.10;;;8.70;75.00;;;;;;5076948;28;20048;-86
2021/03/27 11:00:42;;;;;;;2.38;1.33;;;9.00;62.70;;;;;;5033098;28;20040;-86
2021/03/27 11:03:44;;;;;;;1.17;1.17;;;9.00;60.70;;;;;;5100761;28;20392;-82
2021/03/27 11:06:20;;;;;;;1.30;1.20;;;8.90;62.50;;;;;;5135107;27;20050;-82
2021/03/27 11:09:05;;;;;;;1.00;1.00;;;8.90;61.10;;;;;;5132034;27;20381;-82
2021/03/27 11:12:09;;;;;;;1.08;1.02;;;8.60;61.20;;;;;;5076047;28;20044;-83
2021/03/27 11:14:39;;;;;;;1.15;1.05;;;8.70;59.60;;;;;;5052604;28;20048;-82
2021/03/27 11:17:49;;;;;;;1.00;1.00;;;8.20;62.50;;;;;;5114946;28;20032;-80
2021/03/27 11:21:18;;;;;;;5.20;1.63;;;8.20;65.20;;;;;;5074486;28;20066;-81
2021/03/27 11:24:06;;;;;;;1.45;1.08;;;8.00;67.80;;;;;;5059450;28;20049;-85
2021/03/27 11:26:42;;;;;;;1.67;1.25;;;8.00;67.10;;;;;;5027563;28;20056;-81
2021/03/27 11:29:42;;;;;;;1.60;1.50;;;7.90;66.20;;;;;;5083327;28;20043;-82
2021/03/27 11:32:28;;;;;;;1.00;1.00;;;7.70;66.90;;;;;;5100496;28;20063;-84
2021/03/27 11:35:04;;;;;;;2.17;1.58;;;7.70;69.00;;;;;;5111098;28;20754;-83
2021/03/27 11:37:47;;;;;;;1.25;1.20;;;7.70;69.70;;;;;;5096135;28;20043;-86
2021/03/27 11:40:23;;;;;;;2.35;1.30;;;7.70;74.20;;;;;;5059307;28;20040;-85
2021/03/27 11:43:01;;;;;;;1.25;1.20;;;7.70;79.60;;;;;;5109941;28;20488;-84
2021/03/27 11:45:40;;;;;;;1.60;1.50;;;7.70;78.90;;;;;;5086280;28;20047;-86
2021/03/27 11:48:45;;;;;;;1.25;1.23;;;7.70;81.00;;;;;;5093394;28;20064;-85
2021/03/27 11:51:41;;;;;;;1.25;1.15;;;7.70;81.50;;;;;;5100943;28;20052;-84
2021/03/27 11:54:26;;;;;;;1.77;1.48;;;7.50;80.20;;;;;;5084514;28;20047;-79
2021/03/27 11:57:10;;;;;;;1.65;1.35;;;7.40;81.70;;;;;;5116870;27;20050;-77
2021/03/27 12:02:59;;;;;;;1.60;1.50;;;7.40;82.70;;;;;;5084357;28;20051;-77
2021/03/27 12:05:36;;;;;;;1.77;1.20;;;7.30;80.50;;;;;;5099434;28;20400;-76
2021/03/27 12:08:34;;;;;;;2.22;1.73;;;7.50;82.80;;;;;;5088462;28;20580;-81
2021/03/27 12:11:29;;;;;;;2.05;1.95;;;7.40;80.30;;;;;;5075688;28;20044;-82
2021/03/27 12:14:04;;;;;;;1.63;1.52;;;7.40;81.40;;;;;;5093593;28;20815;-82
2021/03/27 12:16:37;;;;;;;1.70;1.60;;;7.70;82.60;;;;;;5109263;28;20051;-81
2021/03/27 12:19:35;;;;;;;3.40;1.10;;;7.70;79.70;;;;;;5099432;28;20047;-81
2021/03/27 12:22:26;;;;;;;1.00;1.00;;;7.70;78.90;;;;;;5092694;28;20040;-81
2021/03/27 12:25:22;;;;;;;1.80;1.70;;;7.60;77.70;;;;;;5075333;28;20048;-79
2021/03/27 12:28:15;;;;;;;7.38;1.70;;;7.80;79.20;;;;;;5090250;28;20121;-79
2021/03/27 12:30:50;;;;;;;3.08;1.15;;;7.90;78.20;;;;;;5098101;28;20063;-79
2021/03/27 12:33:50;;;;;;;5.47;2.92;;;8.10;77.30;;;;;;5081917;28;20047;-79
2021/03/27 12:36:45;;;;;;;3.40;1.77;;;8.20;74.80;;;;;;5098688;28;20120;-79
2021/03/27 12:39:40;;;;;;;1.60;1.50;;;8.40;72.50;;;;;;5086946;27;20484;-79
2021/03/27 12:42:18;;;;;;;1.80;1.70;;;8.60;74.60;;;;;;5109010;28;20047;-80
2021/03/27 12:44:58;;;;;;;1.98;1.70;;;8.20;74.10;;;;;;5095089;28;20411;-78
2021/03/27 12:47:39;;;;;;;1.40;1.30;;;8.00;69.20;;;;;;5102595;28;20059;-78
2021/03/27 12:50:22;;;;;;;4.68;1.45;;;8.20;72.40;;;;;;5105012;28;20043;-78
2021/03/27 12:53:05;;;;;;;2.22;1.50;;;8.40;74.00;;;;;;5102965;28;20515;-78
2021/03/27 12:55:38;;;;;;;1.40;1.30;;;8.50;68.40;;;;;;5105616;28;20054;-77
2021/03/27 12:58:25;;;;;;;1.70;1.60;;;8.40;69.00;;;;;;5081652;28;20048;-78
2021/03/27 13:01:01;;;;;;;1.45;1.17;;;8.40;70.40;;;;;;5084404;28;20039;-79
2021/03/27 13:03:48;;;;;;;2.22;1.73;;;8.50;72.50;;;;;;5083382;28;20047;-86
2021/03/27 13:06:22;;;;;;;1.20;1.10;;;8.60;71.70;;;;;;5084535;28;20039;-82
2021/03/27 13:09:12;;;;;;;4.07;2.00;;;8.60;70.80;;;;;;5122220;27;20043;-84
2021/03/27 13:11:48;;;;;;;3.78;2.13;;;8.50;69.80;;;;;;5110025;28;20059;-86
2021/03/27 13:14:41;;;;;;;1.35;1.25;;;8.50;73.90;;;;;;5096062;28;20040;-81
2021/03/27 13:17:33;;;;;;;5.50;2.10;;;8.80;72.50;;;;;;5105988;28;20372;-81
2021/03/27 13:20:19;;;;;;;4.78;2.15;;;8.50;70.10;;;;;;5090156;28;20043;-83
2021/03/27 13:23:12;;;;;;;1.42;1.33;;;8.80;74.40;;;;;;5067040;28;20063;-80
2021/03/27 13:25:53;;;;;;;2.20;2.00;;;9.20;68.20;;;;;;5086097;28;20480;-79
2021/03/27 13:28:52;;;;;;;7.03;2.30;;;8.60;65.70;;;;;;5092138;28;20036;-79
2021/03/27 13:31:37;;;;;;;2.42;1.83;;;8.60;65.80;;;;;;5091382;28;20047;-81
2021/03/27 13:34:04;;;;;;;1.73;1.50;;;9.00;68.40;;;;;;5076013;28;20044;-80
2021/03/27 13:36:36;;;;;;;2.83;2.08;;;9.20;64.70;;;;;;5091643;28;20066;-84
2021/03/27 13:39:15;;;;;;;4.38;2.05;;;9.20;65.70;;;;;;5089497;28;20048;-87
2021/03/27 13:41:54;;;;;;;2.45;1.90;;;9.00;64.40;;;;;;5114261;28;20055;-85
2021/03/27 13:44:46;;;;;;;2.67;1.48;;;8.90;65.10;;;;;;5098176;28;20058;-89
2021/03/27 13:47:25;;;;;;;3.72;1.85;;;9.00;67.80;;;;;;5074266;28;20396;-82
2021/03/27 13:50:26;;;;;;;2.88;1.98;;;9.30;65.10;;;;;;5073788;28;20036;-84
2021/03/27 13:53:21;;;;;;;2.25;1.88;;;9.00;62.30;;;;;;5074278;28;20040;-91
2021/03/27 13:56:01;;;;;;;1.83;1.30;;;9.20;61.00;;;;;;5055022;28;20068;-75
2021/03/27 13:59:00;;;;;;;1.92;1.70;;;9.40;62.30;;;;;;5081371;28;20423;-83
2021/03/27 14:01:40;;;;;;;2.83;1.10;;;9.30;59.70;;;;;;5072545;28;20492;-77
2021/03/27 14:04:24;;;;;;;5.53;1.60;;;9.20;60.30;;;;;;5098900;28;20486;-76
2021/03/27 14:07:03;;;;;;;1.63;1.52;;;9.30;57.70;;;;;;5102172;28;20044;-77
2021/03/27 14:09:31;;;;;;;4.25;1.90;;;9.60;55.60;;;;;;5099031;28;20391;-76
2021/03/27 14:12:05;;;;;;;3.17;1.90;;;9.10;60.10;;;;;;5084680;28;20040;-75
2021/03/27 14:14:39;;;;;;;1.48;1.38;;;9.40;58.40;;;;;;5102594;28;20067;-76
2021/03/27 14:17:07;;;;;;;;;;;9.80;59.50;;;;;;5105221;28;20040;-75
2021/03/27 14:20:05;;;;;;;4.10;1.45;;;9.60;56.50;;;;;;5098691;28;20280;-78
2021/03/27 14:22:44;;;;;;;2.45;1.10;;;9.40;57.50;;;;;;5059196;28;20051;-81
2021/03/27 14:25:11;;;;;;;2.80;2.40;;;9.20;59.30;;;;;;5109700;28;20044;-81
2021/03/27 14:28:08;;;;;;;2.03;1.70;;;9.10;58.60;;;;;;5129800;28;20395;-79
2021/03/27 14:30:49;;;;;;;1.92;1.70;;;9.10;62.90;;;;;;5110046;28;20047;-80
2021/03/27 14:33:43;;;;;;;2.00;1.80;;;9.00;61.30;;;;;;5105427;28;20047;-81
2021/03/27 14:36:25;;;;;;;2.17;1.48;;;8.90;62.10;;;;;;5091143;28;20040;-79
2021/03/27 14:39:23;;;;;;;1.60;1.40;;;8.90;59.30;;;;;;5105645;28;20063;-80
2021/03/27 14:41:51;;;;;;;1.90;1.67;;;9.00;59.60;;;;;;5110563;27;20050;-79
2021/03/27 14:44:41;;;;;;;4.20;1.70;;;9.20;63.00;;;;;;5114301;28;20051;-79